Time;durP1;ratioP1;P1;durP2;ratioP2;P2;SDS_P1;SDS_P2;PMS_P1;PMS_P2;Temp;Humidity;BMP_temperature;BMP_pressure;BME280_temperature;BME280_humidity;BME280_pressure;Samples;Min_cycle;Max_cycle;Signal;HPM_P1;HPM_P2
2021/11/16 00:02:14;;;;;;;;;;;6.00;99.90;;;;;;5040425;28;19932;-82
2021/11/16 00:04:41;;;;;;;;;;;6.10;99.90;;;;;;5043438;28;19925;-82
2021/11/16 00:07:09;;;;;;;;;;;6.10;99.90;;;;;;5040722;28;19971;-82
2021/11/16 00:09:36;;;;;;;;;;;6.10;99.90;;;;;;5045132;28;19947;-82
2021/11/16 00:12:03;;;;;;;;;;;6.10;99.90;;;;;;5040355;28;20285;-82
2021/11/16 00:14:31;;;;;;;;;;;6.10;99.90;;;;;;5039514;28;20381;-81
2021/11/16 00:16:57;;;;;;;;;;;6.20;99.90;;;;;;5040409;28;19960;-82
2021/11/16 00:19:26;;;;;;;;;;;6.10;99.90;;;;;;5040494;28;20272;-84
2021/11/16 00:21:53;;;;;;;;;;;6.10;99.90;;;;;;5044938;28;19925;-81
2021/11/16 00:24:31;;;;;;;;;;;6.10;99.90;;;;;;5043682;28;20376;-83
2021/11/16 00:26:58;;;;;;;;;;;6.10;99.90;;;;;;5040189;28;19925;-84
2021/11/16 00:29:24;;;;;;;;;;;6.10;99.90;;;;;;5039779;28;19925;-82
2021/11/16 00:31:51;;;;;;;;;;;6.10;99.90;;;;;;5049416;28;19926;-80
2021/11/16 00:34:17;;;;;;;;;;;6.10;99.90;;;;;;5059252;28;19932;-83
2021/11/16 00:36:44;;;;;;;;;;;6.10;99.90;;;;;;5043203;28;19936;-82
2021/11/16 00:39:11;;;;;;;;;;;6.10;99.90;;;;;;5041545;28;19948;-82
2021/11/16 00:41:38;;;;;;;;;;;6.00;99.90;;;;;;5041655;28;19933;-82
2021/11/16 00:44:05;;;;;;;;;;;5.80;99.90;;;;;;5040023;28;19925;-81
2021/11/16 00:46:31;;;;;;;;;;;6.00;99.90;;;;;;5039796;28;19925;-81
2021/11/16 00:48:58;;;;;;;;;;;6.10;99.90;;;;;;5039316;28;19925;-84
2021/11/16 00:51:25;;;;;;;;;;;6.10;99.90;;;;;;5038769;28;20038;-82
2021/11/16 00:53:51;;;;;;;;;;;6.10;99.90;;;;;;5038912;28;19933;-83
2021/11/16 00:56:18;;;;;;;;;;;6.00;99.90;;;;;;5039230;28;19925;-82
2021/11/16 00:58:46;;;;;;;;;;;6.10;99.90;;;;;;5038229;28;19972;-83
2021/11/16 01:01:12;;;;;;;;;;;6.10;99.90;;;;;;5038704;28;19925;-83
2021/11/16 01:03:39;;;;;;;;;;;6.10;99.90;;;;;;5038183;28;19983;-81
2021/11/16 01:06:06;;;;;;;;;;;6.10;99.90;;;;;;5038219;28;19948;-83
2021/11/16 01:08:32;;;;;;;;;;;6.10;99.90;;;;;;5056682;28;19909;-81
2021/11/16 01:10:59;;;;;;;;;;;6.00;99.90;;;;;;5057645;28;19934;-80
2021/11/16 01:13:26;;;;;;;;;;;6.10;99.90;;;;;;5046951;28;20392;-83
2021/11/16 01:15:54;;;;;;;;;;;6.20;99.90;;;;;;5043017;28;19978;-82
2021/11/16 01:18:21;;;;;;;;;;;6.00;99.90;;;;;;5038774;28;19925;-83
2021/11/16 01:20:49;;;;;;;;;;;5.90;99.90;;;;;;5039453;28;19948;-82
2021/11/16 01:23:18;;;;;;;;;;;5.90;99.90;;;;;;5038973;28;20440;-83
2021/11/16 01:25:45;;;;;;;;;;;6.10;99.90;;;;;;5043626;28;19974;-83
2021/11/16 01:28:12;;;;;;;;;;;6.00;99.90;;;;;;5043523;28;20308;-83
2021/11/16 01:30:40;;;;;;;;;;;6.00;99.90;;;;;;5044340;28;19987;-82
2021/11/16 01:33:09;;;;;;;;;;;6.00;99.90;;;;;;5052435;28;19925;-79
2021/11/16 01:35:37;;;;;;;;;;;6.00;99.90;;;;;;5054653;28;19933;-82
2021/11/16 01:38:06;;;;;;;;;;;6.00;99.90;;;;;;5049865;28;19919;-79
2021/11/16 01:40:33;;;;;;;;;;;6.00;99.90;;;;;;5046555;28;19948;-80
2021/11/16 01:43:00;;;;;;;;;;;5.90;99.90;;;;;;5051164;28;19925;-80
2021/11/16 01:45:26;;;;;;;;;;;5.30;99.90;;;;;;5048170;28;19929;-82
2021/11/16 01:47:53;;;;;;;;;;;5.80;99.90;;;;;;5040242;28;19947;-82
2021/11/16 01:50:22;;;;;;;;;;;5.80;99.90;;;;;;5042223;28;19925;-81
2021/11/16 01:52:49;;;;;;;;;;;5.80;99.90;;;;;;5040028;28;19925;-83
2021/11/16 01:55:17;;;;;;;;;;;5.80;99.90;;;;;;5040779;28;19994;-82
2021/11/16 01:57:43;;;;;;;;;;;5.80;99.90;;;;;;5043835;28;20343;-82
2021/11/16 02:00:12;;;;;;;;;;;5.80;99.90;;;;;;5047342;28;19951;-82
2021/11/16 02:02:39;;;;;;;;;;;5.80;99.90;;;;;;5043512;28;20381;-82
2021/11/16 02:05:07;;;;;;;;;;;5.90;99.90;;;;;;5042459;28;19925;-82
2021/11/16 02:07:34;;;;;;;;;;;5.80;99.90;;;;;;5038036;28;19925;-82
2021/11/16 02:10:02;;;;;;;;;;;5.80;99.90;;;;;;5040848;28;19929;-81
2021/11/16 02:12:29;;;;;;;;;;;5.80;99.90;;;;;;5044988;28;19980;-81
2021/11/16 02:14:55;;;;;;;;;;;5.80;99.90;;;;;;5045238;28;19925;-81
2021/11/16 02:17:22;;;;;;;;;;;5.80;99.90;;;;;;5043768;28;19971;-83
2021/11/16 02:19:48;;;;;;;;;;;5.70;99.90;;;;;;5040577;28;19969;-81
2021/11/16 02:22:17;;;;;;;;;;;5.80;99.90;;;;;;5039970;28;19929;-82
2021/11/16 02:24:43;;;;;;;;;;;5.90;99.90;;;;;;5043030;28;19932;-81
2021/11/16 02:27:10;;;;;;;;;;;6.00;99.90;;;;;;5052795;28;19913;-81
2021/11/16 02:29:36;;;;;;;;;;;5.90;99.90;;;;;;5055554;28;19925;-82
2021/11/16 02:32:03;;;;;;;;;;;5.80;99.90;;;;;;5058048;28;19925;-80
2021/11/16 02:34:30;;;;;;;;;;;5.80;99.90;;;;;;5057602;28;19925;-82
2021/11/16 02:36:56;;;;;;;;;;;5.80;99.90;;;;;;5044436;28;20326;-82
2021/11/16 02:39:24;;;;;;;;;;;5.80;99.90;;;;;;5043950;28;20280;-82
2021/11/16 02:41:52;;;;;;;;;;;5.70;99.90;;;;;;5041692;28;19925;-82
2021/11/16 02:44:19;;;;;;;;;;;5.70;99.90;;;;;;5043276;28;20384;-82
2021/11/16 02:46:45;;;;;;;;;;;5.70;99.90;;;;;;5043110;28;19925;-82
2021/11/16 02:49:12;;;;;;;;;;;5.80;99.90;;;;;;5042667;28;19925;-82
2021/11/16 02:51:39;;;;;;;;;;;5.80;99.90;;;;;;5043387;28;19925;-83
2021/11/16 02:54:11;;;;;;;;;;;5.70;99.90;;;;;;5045392;28;19932;-82
2021/11/16 02:56:39;;;;;;;;;;;5.80;99.90;;;;;;5042709;28;19928;-82
2021/11/16 02:59:05;;;;;;;;;;;5.80;99.90;;;;;;5040875;28;20269;-83
2021/11/16 03:01:32;;;;;;;;;;;5.70;99.90;;;;;;5042209;28;20277;-82
2021/11/16 03:03:58;;;;;;;;;;;5.70;99.90;;;;;;5041361;28;20388;-82
2021/11/16 03:06:25;;;;;;;;;;;5.70;99.90;;;;;;5042460;28;19961;-79
2021/11/16 03:08:51;;;;;;;;;;;5.70;99.90;;;;;;5042922;28;20331;-81
2021/11/16 03:11:19;;;;;;;;;;;5.70;99.90;;;;;;5042327;28;19925;-83
2021/11/16 03:13:47;;;;;;;;;;;5.70;99.90;;;;;;5042839;28;19925;-83
2021/11/16 03:16:15;;;;;;;;;;;5.70;99.90;;;;;;5042363;28;20339;-83
2021/11/16 03:18:44;;;;;;;;;;;5.80;99.90;;;;;;5041973;28;19932;-83
2021/11/16 03:21:12;;;;;;;;;;;5.80;99.90;;;;;;5048130;28;19925;-82
2021/11/16 03:23:39;;;;;;;;;;;5.80;99.90;;;;;;5056529;28;19925;-83
2021/11/16 03:26:05;;;;;;;;;;;6.00;99.90;;;;;;5057175;28;19948;-82
2021/11/16 03:28:33;;;;;;;;;;;5.80;99.90;;;;;;5051445;28;19975;-83
2021/11/16 03:31:08;;;;;;;;;;;5.80;99.90;;;;;;5042722;28;19992;-83
2021/11/16 03:33:35;;;;;;;;;;;5.80;99.90;;;;;;5042604;28;19925;-83
2021/11/16 03:36:02;;;;;;;;;;;5.80;99.90;;;;;;5041507;28;19925;-83
2021/11/16 03:38:28;;;;;;;;;;;5.80;99.90;;;;;;5040030;28;19972;-83
2021/11/16 03:40:56;;;;;;;;;;;5.80;99.90;;;;;;5040581;28;19932;-83
2021/11/16 03:43:23;;;;;;;;;;;5.80;99.90;;;;;;5052532;28;19924;-82
2021/11/16 03:45:50;;;;;;;;;;;5.80;99.90;;;;;;5056514;28;19948;-82
2021/11/16 03:48:18;;;;;;;;;;;5.80;99.90;;;;;;5055937;28;19925;-81
2021/11/16 03:50:45;;;;;;;;;;;5.80;99.90;;;;;;5053854;28;19979;-83
2021/11/16 03:53:11;;;;;;;;;;;5.80;99.90;;;;;;5042532;28;19925;-83
2021/11/16 03:55:40;;;;;;;;;;;5.80;99.90;;;;;;5043750;28;19932;-80
2021/11/16 03:58:07;;;;;;;;;;;5.70;99.90;;;;;;5042838;28;19976;-83
2021/11/16 04:00:34;;;;;;;;;;;5.70;99.90;;;;;;5041117;28;19952;-82
2021/11/16 04:03:01;;;;;;;;;;;5.80;99.90;;;;;;5041168;28;19925;-83
2021/11/16 04:05:30;;;;;;;;;;;5.70;99.90;;;;;;5041100;28;19929;-82
2021/11/16 04:07:56;;;;;;;;;;;5.70;99.90;;;;;;5040931;28;19925;-82
2021/11/16 04:10:23;;;;;;;;;;;5.70;99.90;;;;;;5039791;28;20462;-82
2021/11/16 04:12:50;;;;;;;;;;;5.70;99.90;;;;;;5049143;28;19913;-80
2021/11/16 04:15:18;;;;;;;;;;;5.70;99.90;;;;;;5054975;28;19925;-80
2021/11/16 04:17:44;;;;;;;;;;;5.60;99.90;;;;;;5050393;28;19932;-82
2021/11/16 04:20:11;;;;;;;;;;;5.60;99.90;;;;;;5042660;28;20352;-82
2021/11/16 04:22:39;;;;;;;;;;;5.60;99.90;;;;;;5038332;28;19960;-82
2021/11/16 04:25:06;;;;;;;;;;;5.70;99.90;;;;;;5038727;28;19925;-83
2021/11/16 04:27:33;;;;;;;;;;;5.70;99.90;;;;;;5041003;28;19963;-82
2021/11/16 04:29:59;;;;;;;;;;;5.70;99.90;;;;;;5041912;28;20396;-83
2021/11/16 04:32:26;;;;;;;;;;;5.60;99.90;;;;;;5039956;28;19936;-83
2021/11/16 04:34:52;;;;;;;;;;;5.60;99.90;;;;;;5041139;28;19925;-81
2021/11/16 04:37:19;;;;;;;;;;;5.70;99.90;;;;;;5038900;28;19925;-82
2021/11/16 04:39:46;;;;;;;;;;;5.60;99.90;;;;;;5039251;28;19972;-82
2021/11/16 04:42:13;;;;;;;;;;;5.70;99.90;;;;;;5044759;28;19972;-83
2021/11/16 04:44:41;;;;;;;;;;;5.70;99.90;;;;;;5039800;28;19925;-83
2021/11/16 04:47:07;;;;;;;;;;;5.70;99.90;;;;;;5042803;28;19925;-82
2021/11/16 04:49:37;;;;;;;;;;;5.70;99.90;;;;;;5039411;28;20008;-82
2021/11/16 04:52:19;;;;;;;;;;;5.70;99.90;;;;;;5048968;28;20019;-82
2021/11/16 05:03:09;;;;;;;;;;;5.70;99.90;;;;;;5020397;28;19921;-84
2021/11/16 05:05:36;;;;;;;;;;;5.70;99.90;;;;;;5038220;28;19925;-83
2021/11/16 05:08:03;;;;;;;;;;;5.70;99.90;;;;;;5039788;28;19933;-82
2021/11/16 05:10:31;;;;;;;;;;;5.60;99.90;;;;;;5039145;28;19931;-82
2021/11/16 05:12:59;;;;;;;;;;;5.70;99.90;;;;;;5039638;28;19952;-82
2021/11/16 05:15:26;;;;;;;;;;;5.70;99.90;;;;;;5039949;28;19925;-82
2021/11/16 05:17:54;;;;;;;;;;;5.70;99.90;;;;;;5041346;28;19932;-82
2021/11/16 05:20:21;;;;;;;;;;;5.60;99.90;;;;;;5040901;28;20282;-82
2021/11/16 05:22:50;;;;;;;;;;;5.60;99.90;;;;;;5060241;22;19925;-85
2021/11/16 05:25:17;;;;;;;;;;;5.70;99.90;;;;;;5049340;28;19980;-85
2021/11/16 05:27:45;;;;;;;;;;;5.90;99.90;;;;;;5048316;28;19925;-85
2021/11/16 05:30:13;;;;;;;;;;;5.90;99.90;;;;;;5049022;28;20031;-85
2021/11/16 05:32:39;;;;;;;;;;;5.90;99.90;;;;;;5047534;28;19929;-85
2021/11/16 05:35:07;;;;;;;;;;;5.80;99.90;;;;;;5048392;28;19925;-85
2021/11/16 05:37:34;;;;;;;;;;;5.80;99.90;;;;;;5046976;28;19925;-85
2021/11/16 05:40:01;;;;;;;;;;;5.80;99.90;;;;;;5049182;28;19925;-85
2021/11/16 05:42:27;;;;;;;;;;;5.80;99.90;;;;;;5056420;28;19909;-85
2021/11/16 05:44:55;;;;;;;;;;;5.80;99.90;;;;;;5058939;28;19929;-84
2021/11/16 05:47:22;;;;;;;;;;;5.80;99.90;;;;;;5056379;28;19925;-85
2021/11/16 05:49:48;;;;;;;;;;;5.80;99.90;;;;;;5049653;28;19932;-85
2021/11/16 05:52:17;;;;;;;;;;;5.80;99.90;;;;;;5045194;28;19925;-85
2021/11/16 05:54:44;;;;;;;;;;;5.70;99.90;;;;;;5046584;28;19925;-85
2021/11/16 05:57:10;;;;;;;;;;;5.70;99.90;;;;;;5047606;28;19952;-85
2021/11/16 05:59:37;;;;;;;;;;;5.70;99.90;;;;;;5048766;28;20059;-85
2021/11/16 06:02:06;;;;;;;;;;;5.80;99.90;;;;;;5048332;28;19925;-84
2021/11/16 06:04:34;;;;;;;;;;;5.70;99.90;;;;;;5049352;28;19925;-85
2021/11/16 06:07:00;;;;;;;;;;;5.70;99.90;;;;;;5049579;28;19974;-86
2021/11/16 06:09:29;;;;;;;;;;;5.70;99.90;;;;;;5046585;28;19925;-86
2021/11/16 06:11:56;;;;;;;;;;;5.70;99.90;;;;;;5046655;28;19925;-87
2021/11/16 06:14:22;;;;;;;;;;;5.80;99.90;;;;;;5046798;28;19925;-87
2021/11/16 06:16:49;;;;;;;;;;;5.70;99.90;;;;;;5047297;28;19975;-87
2021/11/16 06:19:19;;;;;;;;;;;5.70;99.90;;;;;;5049722;28;19925;-86
2021/11/16 06:21:46;;;;;;;;;;;5.70;99.90;;;;;;5047869;28;20442;-86
2021/11/16 06:24:12;;;;;;;;;;;5.80;99.90;;;;;;5048272;28;20296;-86
2021/11/16 06:26:39;;;;;;;;;;;5.80;99.90;;;;;;5047418;28;19983;-86
2021/11/16 06:29:07;;;;;;;;;;;5.60;99.90;;;;;;5049842;28;20323;-86
2021/11/16 06:31:33;;;;;;;;;;;5.60;99.90;;;;;;5040885;28;19944;-85
2021/11/16 06:34:02;;;;;;;;;;;5.60;99.90;;;;;;5042335;28;19925;-86
2021/11/16 06:36:34;;;;;;;;;;;5.70;99.90;;;;;;5043427;28;19973;-86
2021/11/16 06:39:01;;;;;;;;;;;5.70;99.90;;;;;;5043026;28;19925;-86
2021/11/16 06:41:27;;;;;;;;;;;5.70;99.90;;;;;;5044572;28;19925;-86
2021/11/16 06:43:54;;;;;;;;;;;5.70;99.90;;;;;;5047786;28;19941;-87
2021/11/16 06:46:20;;;;;;;;;;;5.70;99.90;;;;;;5060362;28;19924;-86
2021/11/16 06:48:47;;;;;;;;;;;5.70;99.90;;;;;;5059753;28;19935;-87
2021/11/16 06:51:14;;;;;;;;;;;5.70;99.90;;;;;;5058155;28;19929;-88
2021/11/16 06:53:43;;;;;;;;;;;;;;;;;;5060967;28;19914;-87
2021/11/16 06:56:11;;;;;;;;;;;5.70;99.90;;;;;;5060751;28;19932;-86
2021/11/16 06:58:37;;;;;;;;;;;5.70;99.90;;;;;;5058667;28;19929;-85
2021/11/16 07:01:04;;;;;;;;;;;5.70;99.90;;;;;;5043065;28;19925;-87
2021/11/16 07:03:34;;;;;;;;;;;;;;;;;;5041269;28;19980;-86
2021/11/16 07:06:01;;;;;;;;;;;5.70;99.90;;;;;;5041673;28;20303;-87
2021/11/16 07:08:32;;;;;;;;;;;5.80;99.90;;;;;;5044062;28;20298;-87
2021/11/16 07:11:03;;;;;;;;;;;5.80;99.90;;;;;;5046483;28;19948;-87
2021/11/16 07:13:31;;;;;;;;;;;5.80;99.90;;;;;;5046288;28;19991;-87
2021/11/16 07:15:58;;;;;;;;;;;5.90;99.90;;;;;;5045798;28;19975;-86
2021/11/16 07:18:25;;;;;;;;;;;5.90;99.90;;;;;;5045876;28;20015;-85
2021/11/16 07:20:57;;;;;;;;;;;5.90;99.90;;;;;;5045844;28;20399;-84
2021/11/16 07:23:25;;;;;;;;;;;6.00;99.90;;;;;;5049066;28;19948;-84
2021/11/16 07:25:51;;;;;;;;;;;5.90;99.90;;;;;;5050199;28;19929;-84
2021/11/16 07:28:18;;;;;;;;;;;6.00;99.90;;;;;;5054596;28;19936;-84
2021/11/16 07:30:45;;;;;;;;;;;5.90;99.90;;;;;;5060393;28;19913;-84
2021/11/16 07:33:14;;;;;;;;;;;6.00;99.90;;;;;;5060392;28;19952;-85
2021/11/16 07:35:43;;;;;;;;;;;6.00;99.90;;;;;;5056705;28;19936;-83
2021/11/16 07:38:12;;;;;;;;;;;6.00;99.90;;;;;;5049495;28;19932;-85
2021/11/16 07:40:43;;;;;;;;;;;5.90;99.90;;;;;;5050007;28;19972;-84
2021/11/16 07:43:11;;;;;;;;;;;5.90;99.90;;;;;;5048805;28;19925;-84
2021/11/16 07:45:40;;;;;;;;;;;6.00;99.90;;;;;;5050104;28;19952;-84
2021/11/16 07:48:09;;;;;;;;;;;6.00;99.90;;;;;;5050435;28;19925;-84
2021/11/16 07:50:38;;;;;;;;;;;6.00;99.90;;;;;;5050118;28;19951;-84
2021/11/16 07:53:23;;;;;;;;;;;6.00;99.90;;;;;;5051081;28;19952;-84
2021/11/16 07:55:57;;;;;;;;;;;6.00;99.90;;;;;;5052287;28;19926;-84
2021/11/16 07:58:28;;;;;;;;;;;6.00;99.90;;;;;;5048518;28;19925;-84
2021/11/16 08:00:55;;;;;;;;;;;6.10;99.90;;;;;;5043750;28;19925;-84
2021/11/16 08:03:26;;;;;;;;;;;6.10;99.90;;;;;;5043976;28;20016;-84
2021/11/16 08:06:00;;;;;;;;;;;6.20;99.90;;;;;;5043771;28;19985;-84
2021/11/16 08:08:40;;;;;;;;;;;6.20;99.90;;;;;;5043809;28;19925;-85
2021/11/16 08:11:12;;;;;;;;;;;6.20;99.90;;;;;;5044451;28;19925;-84
2021/11/16 08:13:49;;;;;;;;;;;6.30;99.90;;;;;;5054903;28;19984;-84
2021/11/16 08:16:16;;;;;;;;;;;6.30;99.90;;;;;;5058951;28;19913;-84
2021/11/16 08:18:45;;;;;;;;;;;6.30;99.90;;;;;;5055425;28;19996;-85
2021/11/16 08:21:12;;;;;;;;;;;6.30;99.90;;;;;;5047413;28;19929;-85
2021/11/16 08:23:45;;;;;;;;;;;6.30;99.90;;;;;;5044627;28;19944;-84
2021/11/16 08:26:12;;;;;;;;;;;6.40;99.90;;;;;;5045948;28;19929;-84
2021/11/16 08:28:39;;;;;;;;;;;6.40;99.90;;;;;;5051055;28;19925;-85
2021/11/16 08:31:09;;;;;;;;;;;6.40;99.90;;;;;;5054328;28;19925;-84
2021/11/16 08:33:35;;;;;;;;;;;6.40;99.90;;;;;;5052417;28;20036;-85
2021/11/16 08:36:03;;;;;;;;;;;6.40;99.90;;;;;;5046224;28;19929;-85
2021/11/16 08:38:32;;;;;;;;;;;6.50;99.90;;;;;;5046910;28;19925;-85
2021/11/16 08:40:58;;;;;;;;;;;6.60;99.90;;;;;;5045611;28;19925;-85
2021/11/16 08:43:35;;;;;;;;;;;6.50;99.90;;;;;;5044057;28;20284;-85
2021/11/16 08:46:04;;;;;;;;;;;6.50;99.90;;;;;;5044639;28;19979;-85
2021/11/16 08:48:31;;;;;;;;;;;6.50;99.90;;;;;;5044952;28;19929;-85
2021/11/16 08:50:58;;;;;;;;;;;6.60;99.90;;;;;;5044530;28;20005;-85
2021/11/16 08:53:28;;;;;;;;;;;6.60;99.90;;;;;;5044358;28;20321;-84
2021/11/16 08:55:54;;;;;;;;;;;6.60;99.90;;;;;;5039072;28;20031;-84
2021/11/16 08:58:24;;;;;;;;;;;6.50;99.90;;;;;;5039209;28;20289;-84
2021/11/16 09:00:52;;;;;;;;;;;6.70;99.90;;;;;;5041557;28;19925;-84
2021/11/16 09:03:20;;;;;;;;;;;6.40;99.90;;;;;;5055223;28;19933;-85
2021/11/16 09:05:47;;;;;;;;;;;6.80;99.90;;;;;;5055356;28;19936;-84
2021/11/16 09:08:16;;;;;;;;;;;6.80;99.90;;;;;;5053377;28;19931;-85
2021/11/16 09:10:44;;;;;;;;;;;6.80;99.90;;;;;;5052347;28;19925;-85
2021/11/16 09:13:12;;;;;;;;;;;6.90;99.90;;;;;;5053714;28;19929;-85
2021/11/16 09:15:41;;;;;;;;;;;7.10;99.90;;;;;;5051672;28;19913;-85
2021/11/16 09:18:13;;;;;;;;;;;7.00;99.90;;;;;;5052794;28;19981;-85
2021/11/16 09:20:40;;;;;;;;;;;7.10;99.90;;;;;;5048606;28;19925;-86
2021/11/16 09:23:07;;;;;;;;;;;7.10;99.90;;;;;;5045450;28;19925;-86
2021/11/16 09:25:35;;;;;;;;;;;7.10;99.90;;;;;;5045980;28;19925;-85
2021/11/16 09:28:10;;;;;;;;;;;7.10;99.90;;;;;;5044871;28;19929;-84
2021/11/16 09:30:39;;;;;;;;;;;7.10;99.90;;;;;;5045095;28;20432;-84
2021/11/16 09:33:08;;;;;;;;;;;7.20;99.90;;;;;;5047574;28;19932;-84
2021/11/16 09:35:49;;;;;;;;;;;7.00;99.90;;;;;;5057331;28;19917;-85
2021/11/16 09:38:31;;;;;;;;;;;7.20;99.90;;;;;;5047501;28;19940;-85
2021/11/16 09:40:57;;;;;;;;;;;7.20;99.90;;;;;;5044270;28;19975;-85
2021/11/16 09:43:25;;;;;;;;;;;7.30;99.90;;;;;;5043580;28;19925;-86
2021/11/16 09:45:53;;;;;;;;;;;7.30;99.90;;;;;;5043948;28;19929;-85
2021/11/16 09:48:21;;;;;;;;;;;7.20;99.90;;;;;;5055504;28;19933;-84
2021/11/16 09:50:47;;;;;;;;;;;7.10;99.90;;;;;;5056287;28;19925;-83
2021/11/16 09:53:15;;;;;;;;;;;7.20;99.90;;;;;;5055494;28;19925;-85
2021/11/16 09:55:42;;;;;;;;;;;7.30;99.90;;;;;;5055469;28;19929;-83
2021/11/16 09:58:18;;;;;;;;;;;7.20;99.90;;;;;;5056146;28;19933;-84
2021/11/16 10:00:47;;;;;;;;;;;7.20;99.90;;;;;;5048853;28;19936;-85
2021/11/16 10:03:15;;;;;;;;;;;7.30;99.90;;;;;;5055228;28;19996;-85
2021/11/16 10:05:43;;;;;;;;;;;7.20;99.90;;;;;;5057925;28;19913;-84
2021/11/16 10:08:10;;;;;;;;;;;7.20;99.90;;;;;;5057970;28;19913;-85
2021/11/16 10:10:38;;;;;;;;;;;7.40;99.90;;;;;;5058009;28;19913;-86
2021/11/16 10:13:07;;;;;;;;;;;7.50;99.90;;;;;;5056438;28;19926;-85
2021/11/16 10:15:34;;;;;;;;;;;7.40;99.90;;;;;;5040468;28;19979;-84
2021/11/16 10:18:02;;;;;;;;;;;7.40;99.90;;;;;;5040681;28;19932;-86
2021/11/16 10:20:30;;;;;;;;;;;7.50;99.90;;;;;;5040760;28;19964;-85
2021/11/16 10:22:58;;;;;;;;;;;7.40;99.90;;;;;;5041616;28;19925;-85
2021/11/16 10:25:29;;;;;;;;;;;7.40;99.90;;;;;;5042794;28;19975;-85
2021/11/16 10:27:56;;;;;;;;;;;7.50;99.90;;;;;;5044374;28;19971;-85
2021/11/16 10:30:24;;;;;;;;;;;7.50;99.90;;;;;;5045101;28;19952;-86
2021/11/16 10:35:49;;;;;;;;;;;7.60;99.90;;;;;;5124057;27;20007;-84
2021/11/16 10:38:17;;;;;;;;;;;7.50;99.90;;;;;;5123423;28;19957;-85
2021/11/16 10:40:44;;;;;;;;;;;7.70;99.90;;;;;;5122474;28;20036;-85
2021/11/16 10:43:11;;;;;;;;;;;7.90;99.90;;;;;;5121695;28;19924;-83
2021/11/16 10:45:40;;;;;;;;;;;7.80;99.90;;;;;;5142408;22;19924;-84
2021/11/16 10:48:09;;;;;;;;;;;7.80;99.90;;;;;;5057007;28;19932;-83
2021/11/16 10:50:36;;;;;;;;;;;7.80;99.90;;;;;;5060435;28;19913;-82
2021/11/16 10:53:07;;;;;;;;;;;7.60;99.90;;;;;;5058092;28;20383;-83
2021/11/16 10:55:35;;;;;;;;;;;7.60;99.90;;;;;;5071845;28;19921;-82
2021/11/16 10:58:05;;;;;;;;;;;7.70;99.90;;;;;;5066363;28;19925;-82
2021/11/16 11:00:33;;;;;;;;;;;7.70;99.90;;;;;;5072224;28;19925;-81
2021/11/16 11:03:13;;;;;;;;;;;7.70;99.90;;;;;;5072360;28;19952;-81
2021/11/16 11:05:40;;;;;;;;;;;7.70;99.90;;;;;;5059068;28;19925;-82
2021/11/16 11:08:08;;;;;;;;;;;7.70;99.90;;;;;;5055859;28;19990;-81
2021/11/16 11:10:42;;;;;;;;;;;7.80;99.90;;;;;;5055129;28;19929;-83
2021/11/16 11:13:16;;;;;;;;;;;7.90;99.90;;;;;;5055177;28;19925;-81
2021/11/16 11:15:42;;;;;;;;;;;7.90;99.90;;;;;;5054907;28;19925;-81
2021/11/16 11:18:09;;;;;;;;;;;7.90;99.90;;;;;;5055550;28;19971;-82
2021/11/16 11:20:38;;;;;;;;;;;7.90;99.90;;;;;;5055109;28;19925;-83
2021/11/16 11:23:19;;;;;;;;;;;7.90;99.90;;;;;;5055745;28;19947;-82
2021/11/16 11:25:49;;;;;;;;;;;8.10;99.90;;;;;;5054312;28;19994;-82
2021/11/16 11:28:34;;;;;;;;;;;8.10;99.90;;;;;;5054929;28;19936;-83
2021/11/16 11:31:00;;;;;;;;;;;8.20;99.90;;;;;;5056071;28;19972;-79
2021/11/16 11:33:42;;;;;;;;;;;8.10;99.90;;;;;;5056592;28;19925;-83
2021/11/16 11:36:17;;;;;;;;;;;8.10;99.90;;;;;;5059028;28;20414;-83
2021/11/16 11:38:44;;;;;;;;;;;8.10;99.90;;;;;;5060782;28;19925;-83
2021/11/16 11:41:12;;;;;;;;;;;8.20;99.90;;;;;;5058052;28;20458;-83
2021/11/16 11:43:39;;;;;;;;;;;8.10;99.90;;;;;;5059115;28;19929;-82
2021/11/16 11:46:05;;;;;;;;;;;8.30;99.90;;;;;;5050699;28;19925;-84
2021/11/16 11:48:32;;;;;;;;;;;8.30;99.90;;;;;;5043920;28;19929;-83
2021/11/16 11:51:00;;;;;;;;;;;8.30;99.90;;;;;;5043764;28;19925;-82
2021/11/16 11:53:29;;;;;;;;;;;8.30;99.90;;;;;;5043512;28;19925;-83
2021/11/16 11:55:57;;;;;;;;;;;8.40;99.90;;;;;;5044310;28;19925;-84
2021/11/16 11:58:27;;;;;;;;;;;8.40;99.90;;;;;;5042759;28;19925;-82
2021/11/16 12:00:55;;;;;;;;;;;8.40;99.90;;;;;;5041997;28;19925;-83
2021/11/16 12:03:22;;;;;;;;;;;8.50;99.90;;;;;;5043081;28;19954;-83
2021/11/16 12:05:50;;;;;;;;;;;8.40;99.90;;;;;;5044132;28;20344;-82
2021/11/16 12:08:16;;;;;;;;;;;8.50;99.90;;;;;;5052571;28;19926;-81
2021/11/16 12:10:45;;;;;;;;;;;8.40;99.90;;;;;;5054636;28;19924;-82
2021/11/16 12:13:12;;;;;;;;;;;8.40;99.90;;;;;;5056577;28;19925;-82
2021/11/16 12:15:42;;;;;;;;;;;8.40;99.90;;;;;;5058073;28;19909;-82
2021/11/16 12:18:09;;;;;;;;;;;8.40;99.90;;;;;;5058041;28;20017;-81
2021/11/16 12:20:37;;;;;;;;;;;8.40;99.90;;;;;;5054294;28;19978;-79
2021/11/16 12:23:05;;;;;;;;;;;8.50;99.90;;;;;;5051491;28;19925;-82
2021/11/16 12:25:32;;;;;;;;;;;8.40;99.90;;;;;;5044426;28;20019;-83
2021/11/16 12:27:58;;;;;;;;;;;8.50;99.90;;;;;;5042919;28;19925;-82
2021/11/16 12:30:36;;;;;;;;;;;8.70;99.90;;;;;;5041904;28;19929;-83
2021/11/16 12:33:05;;;;;;;;;;;8.50;99.90;;;;;;5042100;28;19948;-82
2021/11/16 12:35:32;;;;;;;;;;;8.50;99.90;;;;;;5042077;28;19929;-83
2021/11/16 12:38:00;;;;;;;;;;;8.70;99.90;;;;;;5045724;28;19925;-83
2021/11/16 12:40:36;;;;;;;;;;;8.50;99.90;;;;;;5042737;28;19972;-82
2021/11/16 12:43:11;;;;;;;;;;;8.40;99.90;;;;;;5043114;28;20319;-83
2021/11/16 12:45:39;;;;;;;;;;;8.40;99.90;;;;;;5043048;28;19925;-84
2021/11/16 12:48:07;;;;;;;;;;;8.40;99.90;;;;;;5046878;28;19929;-83
2021/11/16 12:50:34;;;;;;;;;;;8.40;99.90;;;;;;5046612;28;19944;-79
2021/11/16 12:53:00;;;;;;;;;;;8.40;99.90;;;;;;5045296;28;19924;-80
2021/11/16 12:55:28;;;;;;;;;;;8.40;99.90;;;;;;5044361;28;19925;-82
2021/11/16 12:57:56;;;;;;;;;;;8.40;99.90;;;;;;5043431;28;20023;-83
2021/11/16 13:00:36;;;;;;;;;;;8.20;99.90;;;;;;5043247;28;19929;-80
2021/11/16 13:03:05;;;;;;;;;;;8.40;99.90;;;;;;5043580;28;19932;-82
2021/11/16 13:05:41;;;;;;;;;;;8.40;99.90;;;;;;5042640;28;20036;-82
2021/11/16 13:08:08;;;;;;;;;;;8.50;99.90;;;;;;5042662;28;20371;-81
2021/11/16 13:10:42;;;;;;;;;;;8.40;99.90;;;;;;5049287;28;19961;-81
2021/11/16 13:13:15;;;;;;;;;;;8.40;99.90;;;;;;5057443;28;19925;-80
2021/11/16 13:15:43;;;;;;;;;;;8.40;99.90;;;;;;5054750;28;19929;-80
2021/11/16 13:18:12;;;;;;;;;;;8.30;99.90;;;;;;5048151;28;19932;-81
2021/11/16 13:20:40;;;;;;;;;;;8.40;99.90;;;;;;5045126;28;19925;-82
2021/11/16 13:23:08;;;;;;;;;;;8.50;99.90;;;;;;5050625;28;19925;-79
2021/11/16 13:25:39;;;;;;;;;;;8.40;99.90;;;;;;5053232;28;19913;-81
2021/11/16 13:28:06;;;;;;;;;;;8.30;99.90;;;;;;5051876;28;19929;-82
2021/11/16 13:30:33;;;;;;;;;;;8.40;99.90;;;;;;5047375;28;19925;-83
2021/11/16 13:33:19;;;;;;;;;;;8.40;99.90;;;;;;5050091;28;19925;-79
2021/11/16 13:36:01;;;;;;;;;;;8.30;99.90;;;;;;5050442;28;19925;-81
2021/11/16 13:38:42;;;;;;;;;;;8.30;99.90;;;;;;5049353;28;19925;-80
2021/11/16 13:41:11;;;;;;;;;;;8.10;99.90;;;;;;5052049;28;19948;-80
2021/11/16 13:43:37;;;;;;;;;;;8.20;99.90;;;;;;5051148;28;19949;-81
2021/11/16 13:46:13;;;;;;;;;;;8.20;99.90;;;;;;5042860;28;19925;-82
2021/11/16 13:48:47;;;;;;;;;;;8.20;99.90;;;;;;5042409;28;19925;-83
2021/11/16 13:51:21;;;;;;;;;;;8.20;99.90;;;;;;5040976;28;19925;-82
2021/11/16 13:53:55;;;;;;;;;;;8.30;99.90;;;;;;5040209;28;19925;-81
2021/11/16 13:56:23;;;;;;;;;;;8.20;99.90;;;;;;5041342;28;19951;-82
2021/11/16 13:58:49;;;;;;;;;;;8.40;99.90;;;;;;5041376;28;19925;-83
2021/11/16 14:01:16;;;;;;;;;;;8.30;99.90;;;;;;5041301;28;20291;-83
2021/11/16 14:03:42;;;;;;;;;;;8.40;99.90;;;;;;5041164;28;19925;-82
2021/11/16 14:06:09;;;;;;;;;;;8.20;99.90;;;;;;5040782;28;19925;-83
2021/11/16 14:08:36;;;;;;;;;;;8.20;99.90;;;;;;5041466;28;19929;-83
2021/11/16 14:11:06;;;;;;;;;;;8.20;99.90;;;;;;5042965;28;20347;-82
2021/11/16 14:13:35;;;;;;;;;;;8.20;99.90;;;;;;5050457;28;19969;-82
2021/11/16 14:16:03;;;;;;;;;;;8.20;99.90;;;;;;5055064;28;19936;-82
2021/11/16 14:18:30;;;;;;;;;;;8.20;99.90;;;;;;5052735;28;20028;-83
2021/11/16 14:20:58;;;;;;;;;;;8.10;99.90;;;;;;5046753;28;19930;-82
2021/11/16 14:23:25;;;;;;;;;;;8.10;99.90;;;;;;5045930;28;19932;-84
2021/11/16 14:25:53;;;;;;;;;;;8.10;99.90;;;;;;5043498;28;20343;-82
2021/11/16 14:28:21;;;;;;;;;;;8.10;99.90;;;;;;5043996;28;19925;-83
2021/11/16 14:30:49;;;;;;;;;;;8.00;99.90;;;;;;5044892;28;19932;-81
2021/11/16 14:33:16;;;;;;;;;;;8.10;99.90;;;;;;5043676;28;19925;-83
2021/11/16 14:35:47;;;;;;;;;;;8.00;99.90;;;;;;5042512;28;19925;-83
2021/11/16 14:38:14;;;;;;;;;;;8.00;99.90;;;;;;5042282;28;19932;-83
2021/11/16 14:40:40;;;;;;;;;;;8.10;99.90;;;;;;5041332;28;20388;-83
2021/11/16 14:43:17;;;;;;;;;;;8.00;99.90;;;;;;5042602;28;19925;-83
2021/11/16 14:45:44;;;;;;;;;;;8.00;99.90;;;;;;5042089;28;20051;-83
2021/11/16 14:48:17;;;;;;;;;;;8.00;99.90;;;;;;5041561;28;19925;-83
2021/11/16 14:50:57;;;;;;;;;;;8.60;99.90;;;;;;5042104;28;19925;-83